Time;durP1;ratioP1;P1;durP2;ratioP2;P2;SDS_P1;SDS_P2;PMS_P1;PMS_P2;Temp;Humidity;BMP_temperature;BMP_pressure;BME280_temperature;BME280_humidity;BME280_pressure;Samples;Min_cycle;Max_cycle;Signal;HPM_P1;HPM_P2
2022/10/30 05:22:32;;;;;;;4.75;2.60;;;;;;;10.29;100.00;100517.56;5171468;27;20384;-71
2022/10/30 05:24:58;;;;;;;4.60;3.03;;;;;;;10.29;100.00;100510.41;5152793;27;20436;-71
2022/10/30 05:27:23;;;;;;;7.47;2.90;;;;;;;10.23;100.00;100513.72;5152521;27;20034;-71
2022/10/30 05:29:49;;;;;;;5.50;3.05;;;;;;;10.20;100.00;100518.53;5152558;27;20117;-71
2022/10/30 05:32:14;;;;;;;6.22;3.67;;;;;;;10.09;100.00;100519.66;5152222;27;20087;-71
2022/10/30 05:34:46;;;;;;;3.80;2.25;;;;;;;10.04;100.00;100522.84;5152976;27;20064;-72
2022/10/30 05:37:15;;;;;;;4.65;2.72;;;;;;;10.08;100.00;100528.66;5152349;27;20045;-72
2022/10/30 05:39:42;;;;;;;7.10;2.65;;;;;;;10.05;100.00;100529.84;5152421;27;20042;-71
2022/10/30 05:42:17;;;;;;;8.73;2.47;;;;;;;10.04;100.00;100528.16;5152063;27;20033;-71
2022/10/30 05:44:44;;;;;;;4.47;2.70;;;;;;;10.09;100.00;100532.16;5152442;27;20042;-71
2022/10/30 05:47:10;;;;;;;5.18;3.38;;;;;;;10.03;100.00;100529.13;5152246;27;20125;-72
2022/10/30 05:49:36;;;;;;;5.90;2.70;;;;;;;10.01;100.00;100533.81;5152149;27;20099;-73
2022/10/30 05:52:05;;;;;;;4.30;2.60;;;;;;;9.95;100.00;100537.09;5135154;27;20078;-72
2022/10/30 05:54:31;;;;;;;4.35;2.50;;;;;;;9.94;100.00;100538.09;5152458;27;20502;-73
2022/10/30 05:57:06;;;;;;;6.90;3.25;;;;;;;9.89;100.00;100536.94;5152007;27;20041;-72
2022/10/30 05:59:34;;;;;;;5.32;2.28;;;;;;;9.93;100.00;100544.44;5151957;27;20039;-72
2022/10/30 06:01:59;;;;;;;5.45;2.00;;;;;;;9.89;100.00;100539.59;5151587;27;20037;-72
2022/10/30 06:04:25;;;;;;;4.18;2.20;;;;;;;9.81;100.00;100544.88;5151939;27;20034;-71
2022/10/30 06:06:50;;;;;;;3.75;2.28;;;;;;;9.76;100.00;100546.19;5151842;27;20038;-71
2022/10/30 06:09:16;;;;;;;6.63;2.60;;;;;;;9.74;100.00;100552.69;5151749;27;20031;-72
2022/10/30 06:11:57;;;;;;;4.63;2.53;;;;;;;9.83;100.00;100546.38;5151492;27;20129;-72
2022/10/30 06:14:34;;;;;;;3.90;2.40;;;;;;;9.84;100.00;100541.88;5151769;27;20047;-72
2022/10/30 06:16:59;;;;;;;4.32;2.30;;;;;;;9.82;100.00;100551.88;5134670;27;20038;-72
2022/10/30 06:19:45;;;;;;;4.78;2.75;;;;;;;9.85;100.00;100555.06;5127518;27;20085;-61
2022/10/30 06:22:30;;;;;;;4.35;2.53;;;;;;;9.86;100.00;100564.69;5169133;27;20494;-61
2022/10/30 06:25:00;;;;;;;4.03;2.40;;;;;;;9.85;100.00;100563.03;5151655;27;20106;-60
2022/10/30 06:27:44;;;;;;;4.53;1.90;;;;;;;9.81;100.00;100559.03;5151624;27;20038;-60
2022/10/30 06:30:11;;;;;;;4.15;2.25;;;;;;;9.84;100.00;100568.50;5151283;27;20520;-59
2022/10/30 06:32:36;;;;;;;7.22;2.45;;;;;;;9.76;100.00;100567.47;5144872;27;20034;-61
2022/10/30 06:35:02;;;;;;;2.80;2.17;;;;;;;9.76;100.00;100563.97;5137648;27;20136;-59
2022/10/30 06:37:29;;;;;;;5.82;2.25;;;;;;;9.75;100.00;100570.31;5137457;27;20045;-60
2022/10/30 06:39:54;;;;;;;4.35;2.47;;;;;;;9.73;100.00;100574.97;5137343;27;20046;-59
2022/10/30 06:42:43;;;;;;;3.13;2.38;;;;;;;9.75;100.00;100571.13;5156142;27;20562;-61
2022/10/30 06:45:20;;;;;;;3.28;2.33;;;;;;;9.78;100.00;100578.81;5137659;27;20394;-51
2022/10/30 06:47:46;;;;;;;7.95;3.25;;;;;;;9.74;100.00;100565.97;5137582;27;20038;-56
2022/10/30 06:50:15;;;;;;;4.35;2.60;;;;;;;9.85;100.00;100571.03;5136959;27;20031;-64
2022/10/30 06:52:41;;;;;;;6.05;2.95;;;;;;;9.92;100.00;100561.41;5155845;27;20100;-58
2022/10/30 06:55:07;;;;;;;2.65;2.20;;;;;;;9.97;100.00;100566.22;5137231;27;20035;-59
2022/10/30 06:57:55;;;;;;;4.57;2.40;;;;;;;9.95;100.00;100552.25;5137621;27;20373;-57
2022/10/30 07:00:29;;;;;;;3.50;2.25;;;;;;;9.98;100.00;100567.91;5120980;27;20031;-60
2022/10/30 07:03:31;;;;;;;3.85;2.17;;;;;;;10.05;100.00;100566.25;5071301;28;20047;-62
2022/10/30 07:05:56;;;;;;;3.83;2.15;;;;;;;10.06;100.00;100574.06;5120064;27;20046;-63
2022/10/30 07:08:22;;;;;;;2.22;2.03;;;;;;;10.11;100.00;100570.09;5155550;27;20031;-62
2022/10/30 07:10:48;;;;;;;3.67;2.50;;;;;;;10.16;100.00;100576.59;5136648;27;20091;-62
2022/10/30 07:13:24;;;;;;;3.90;2.30;;;;;;;10.25;100.00;100574.81;5136948;27;20099;-60
2022/10/30 07:16:09;;;;;;;3.28;2.42;;;;;;;10.28;100.00;100579.81;5133197;27;20046;-62
2022/10/30 07:18:39;;;;;;;4.53;2.22;;;;;;;10.37;100.00;100576.19;5137001;27;20035;-58
2022/10/30 07:21:05;;;;;;;3.50;1.92;;;;;;;10.37;100.00;100575.31;5136175;27;20127;-61
2022/10/30 07:23:31;;;;;;;3.67;2.35;;;;;;;10.52;100.00;100579.03;5136659;27;20030;-62
2022/10/30 07:26:32;;;;;;;3.03;2.28;;;;;;;10.59;100.00;100586.19;5141022;27;20026;-58
2022/10/30 07:29:04;;;;;;;6.35;2.92;;;;;;;10.70;100.00;100584.22;5136623;27;20363;-59
2022/10/30 07:31:42;;;;;;;4.82;2.70;;;;;;;10.75;100.00;100576.53;5136384;27;20367;-62
2022/10/30 07:34:40;;;;;;;4.35;2.47;;;;;;;10.84;100.00;100575.56;5119887;27;20050;-61
2022/10/30 07:37:24;;;;;;;3.25;2.35;;;;;;;10.91;100.00;100573.88;5155082;27;20110;-62
2022/10/30 07:39:58;;;;;;;5.05;3.10;;;;;;;11.04;100.00;100576.03;5136348;27;20034;-58
2022/10/30 07:42:42;;;;;;;4.00;3.15;;;;;;;11.14;100.00;100574.84;5136281;27;20083;-62
2022/10/30 07:45:24;;;;;;;4.60;3.17;;;;;;;11.23;100.00;100570.34;5135108;27;20567;-62
2022/10/30 07:48:08;;;;;;;2.17;1.85;;;;;;;11.37;100.00;100584.81;5154754;27;20410;-62
2022/10/30 07:50:41;;;;;;;4.68;2.28;;;;;;;11.49;100.00;100582.63;5154476;27;20080;-58
2022/10/30 07:53:06;;;;;;;3.55;2.47;;;;;;;11.60;100.00;100584.91;5154529;27;20039;-56
2022/10/30 07:55:32;;;;;;;4.60;2.08;;;;;;;11.67;100.00;100585.88;5135903;27;20023;-59
2022/10/30 07:58:12;;;;;;;4.15;2.60;;;;;;;11.77;100.00;100591.03;5154593;27;20114;-54
2022/10/30 08:00:57;;;;;;;3.40;2.25;;;;;;;11.86;100.00;100590.03;5154242;27;20045;-56
2022/10/30 08:03:29;;;;;;;5.00;2.55;;;;;;;11.98;100.00;100588.63;5154453;27;20038;-56
2022/10/30 08:06:15;;;;;;;2.92;2.38;;;;;;;12.08;100.00;100596.44;5135617;27;20054;-56
2022/10/30 08:08:42;;;;;;;5.30;2.40;;;;;;;12.20;100.00;100587.88;5135778;27;20038;-59
2022/10/30 08:11:19;;;;;;;4.90;2.28;;;;;;;12.35;100.00;100589.78;5119914;27;20288;-58
2022/10/30 08:13:45;;;;;;;5.22;2.30;;;;;;;12.45;100.00;100590.38;5135596;27;20034;-56
2022/10/30 08:16:11;;;;;;;3.15;2.63;;;;;;;12.62;100.00;100596.44;5154179;27;20034;-58
2022/10/30 08:18:40;;;;;;;8.55;2.75;;;;;;;12.75;100.00;100594.84;5135539;27;20039;-57
2022/10/30 08:21:05;;;;;;;6.93;3.22;;;;;;;12.92;100.00;100598.22;5153582;27;20064;-59
2022/10/30 08:23:31;;;;;;;5.45;3.20;;;;;;;13.07;100.00;100597.44;5135362;27;20038;-59
2022/10/30 08:26:00;;;;;;;5.60;2.50;;;;;;;13.19;100.00;100601.34;5135130;27;20027;-58
2022/10/30 08:28:27;;;;;;;7.32;3.53;;;;;;;13.32;100.00;100595.41;5135056;27;20034;-61
2022/10/30 08:30:54;;;;;;;7.07;1.85;;;;;;;13.56;100.00;100597.78;5134699;27;20058;-59
2022/10/30 08:33:31;;;;;;;7.05;2.60;;;;;;;13.71;100.00;100595.13;5135316;27;20134;-61
2022/10/30 08:36:19;;;;;;;4.50;2.35;;;;;;;13.88;100.00;100596.59;5152988;27;20114;-57
2022/10/30 08:38:45;;;;;;;6.07;2.55;;;;;;;14.02;100.00;100598.44;5135118;27;20482;-61
2022/10/30 08:41:18;;;;;;;8.00;2.90;;;;;;;14.18;100.00;100588.53;5134707;27;20508;-61
2022/10/30 08:43:47;;;;;;;6.03;2.30;;;;;;;14.29;100.00;100596.06;5134902;27;20119;-60
2022/10/30 08:46:13;;;;;;;6.68;2.90;;;;;;;14.42;100.00;100593.53;5153362;27;20481;-61
2022/10/30 08:48:39;;;;;;;6.18;2.63;;;;;;;14.52;100.00;100587.88;5135128;27;20090;-59
2022/10/30 08:51:05;;;;;;;8.55;2.95;;;;;;;14.66;100.00;100590.50;5134523;27;20031;-63
2022/10/30 08:53:35;;;;;;;10.25;2.28;;;;;;;14.77;100.00;100591.03;5134754;27;20046;-62
2022/10/30 08:56:04;;;;;;;5.55;2.58;;;;;;;14.86;100.00;100601.41;5153027;27;20090;-61
2022/10/30 08:58:41;;;;;;;3.40;2.10;;;;;;;14.99;100.00;100597.19;5134847;27;20483;-61
2022/10/30 09:01:07;;;;;;;2.60;2.03;;;;;;;15.08;100.00;100593.38;5134457;27;20041;-61
2022/10/30 09:03:51;;;;;;;3.08;1.85;;;;;;;15.31;100.00;100596.63;5153503;27;20057;-62
2022/10/30 09:06:48;;;;;;;3.50;1.70;;;;;;;15.43;100.00;100591.53;5153107;27;20406;-60
2022/10/30 09:09:43;;;;;;;5.25;1.40;;;;;;;15.64;100.00;100594.19;5130763;27;20099;-62
2022/10/30 09:12:09;;;;;;;5.85;2.20;;;;;;;15.82;100.00;100590.97;5117487;27;20034;-61
2022/10/30 09:14:40;;;;;;;3.00;1.83;;;;;;;16.09;100.00;100588.41;5134620;27;20031;-62
2022/10/30 09:17:07;;;;;;;2.83;1.80;;;;;;;16.29;99.98;100592.00;5134439;27;20050;-63
2022/10/30 09:19:34;;;;;;;2.03;1.48;;;;;;;16.39;98.13;100589.75;5134561;27;20034;-62
2022/10/30 09:22:00;;;;;;;2.40;1.80;;;;;;;16.68;97.35;100593.94;5134281;27;20079;-63
2022/10/30 09:24:26;;;;;;;2.78;1.60;;;;;;;17.06;92.01;100604.97;5134679;27;20402;-60
2022/10/30 09:26:51;;;;;;;2.65;1.67;;;;;;;17.13;91.30;100593.38;5153039;27;20082;-63
2022/10/30 09:29:22;;;;;;;3.22;1.30;;;;;;;17.50;89.91;100592.72;5134277;27;20037;-61
2022/10/30 09:32:03;;;;;;;3.10;1.98;;;;;;;18.12;84.32;100594.00;5134191;27;20042;-59
2022/10/30 09:34:30;;;;;;;1.25;1.05;;;;;;;18.48;81.03;100589.06;5134440;27;20054;-62
2022/10/30 09:37:25;;;;;;;2.97;1.52;;;;;;;18.60;76.53;100590.84;5124001;27;20094;-60
2022/10/30 09:39:54;;;;;;;3.00;1.33;;;;;;;18.71;76.48;100586.66;5117533;27;20455;-62
2022/10/30 09:42:36;;;;;;;4.80;1.55;;;;;;;18.89;77.04;100588.59;5134062;27;20043;-63
2022/10/30 09:45:16;;;;;;;4.10;1.80;;;;;;;19.06;73.90;100592.41;5134204;27;20038;-63
2022/10/30 09:47:49;;;;;;;2.33;1.48;;;;;;;19.17;75.95;100582.75;5134323;27;20069;-62
2022/10/30 09:50:24;;;;;;;2.22;1.55;;;;;;;19.41;74.84;100586.47;5133947;27;20487;-61
2022/10/30 09:53:24;;;;;;;1.67;1.25;;;;;;;19.57;74.51;100587.78;5134282;27;20417;-62
2022/10/30 09:56:14;;;;;;;1.90;1.35;;;;;;;20.07;72.98;100593.88;5134036;27;20031;-63
2022/10/30 09:59:02;;;;;;;2.70;1.73;;;;;;;20.69;64.93;100588.28;5134221;27;20060;-63
2022/10/30 10:01:36;;;;;;;2.15;1.45;;;;;;;21.34;64.55;100589.09;5133896;27;20026;-62
2022/10/30 10:04:27;;;;;;;6.03;1.90;;;;;;;21.66;63.71;100594.16;5134223;27;20091;-63
2022/10/30 10:07:36;;;;;;;;;;;;;;;22.70;59.53;100585.94;5153689;27;20046;-63
2022/10/30 10:10:35;;;;;;;4.33;1.93;;;;;;;23.62;56.72;100581.97;5137840;27;19915;-63
2022/10/30 10:13:25;;;;;;;3.80;1.92;;;;;;;24.12;51.06;100580.94;5138083;27;20279;-62
2022/10/30 10:15:58;;;;;;;6.13;3.17;;;;;;;24.56;50.51;100577.09;5156509;27;20042;-62
2022/10/30 10:18:36;;;;;;;5.55;2.25;;;;;;;24.58;49.10;100574.13;5156560;27;20027;-64
2022/10/30 10:21:12;;;;;;;4.95;2.00;;;;;;;25.20;48.48;100579.03;5156100;27;20034;-64
2022/10/30 10:23:47;;;;;;;5.82;2.55;;;;;;;25.70;47.08;100583.16;5156512;27;20039;-62
2022/10/30 10:26:22;;;;;;;4.35;2.13;;;;;;;25.90;45.63;100585.19;5156352;27;20066;-64
2022/10/30 10:29:12;;;;;;;5.20;1.80;;;;;;;25.68;46.53;100582.56;5156332;27;20042;-62
2022/10/30 10:32:15;;;;;;;4.07;2.17;;;;;;;26.42;44.70;100576.09;5156067;27;20030;-63
2022/10/30 10:35:02;;;;;;;2.85;1.77;;;;;;;26.83;44.23;100571.47;5155627;27;20126;-61
2022/10/30 10:37:43;;;;;;;3.78;2.03;;;;;;;26.54;44.15;100573.09;5156209;27;20041;-60
2022/10/30 10:40:27;;;;;;;3.33;2.10;;;;;;;27.35;43.07;100581.31;5156035;27;20107;-59
2022/10/30 10:43:30;;;;;;;4.43;2.50;;;;;;;27.33;43.16;100569.00;5156184;27;20031;-62
2022/10/30 10:46:14;;;;;;;4.50;2.35;;;;;;;27.41;42.08;100571.19;5156027;27;20030;-62
2022/10/30 10:48:51;;;;;;;9.43;2.75;;;;;;;28.16;40.83;100563.78;5156026;27;20034;-61
2022/10/30 10:51:26;;;;;;;5.70;2.17;;;;;;;28.39;40.50;100557.66;5155697;27;20058;-62
2022/10/30 10:54:06;;;;;;;7.38;2.45;;;;;;;28.66;39.45;100561.84;5156076;27;20045;-60
2022/10/30 10:56:35;;;;;;;6.22;2.47;;;;;;;28.37;39.41;100557.13;5155903;27;20390;-60
2022/10/30 10:59:15;;;;;;;11.60;2.90;;;;;;;28.42;39.60;100556.25;5137367;27;20403;-61
2022/10/30 11:02:04;;;;;;;6.03;2.58;;;;;;;26.95;42.92;100554.81;5137056;27;20031;-61
2022/10/30 11:04:39;;;;;;;7.80;3.50;;;;;;;27.97;42.02;100560.84;5155819;27;20494;-62
2022/10/30 11:07:19;;;;;;;10.13;3.35;;;;;;;28.59;40.81;100550.41;5155666;27;20087;-62
2022/10/30 11:09:50;;;;;;;7.90;3.92;;;;;;;28.75;42.33;100551.06;5137048;27;20038;-62
2022/10/30 11:12:28;;;;;;;7.38;3.42;;;;;;;29.13;39.75;100546.66;5155179;27;20091;-62
2022/10/30 11:15:02;;;;;;;8.55;3.78;;;;;;;29.05;39.32;100544.53;5155859;27;20440;-62
2022/10/30 11:18:04;;;;;;;9.40;3.97;;;;;;;28.36;41.87;100541.81;5155427;27;20125;-62
2022/10/30 11:21:00;;;;;;;6.97;3.00;;;;;;;27.95;39.15;100537.63;5154961;27;20090;-61
2022/10/30 11:23:40;;;;;;;4.45;2.70;;;;;;;27.30;42.41;100538.38;5155306;27;20027;-62
2022/10/30 11:26:19;;;;;;;10.05;3.33;;;;;;;26.91;44.24;100540.03;5155108;27;20031;-62
2022/10/30 11:28:58;;;;;;;8.40;3.45;;;;;;;26.35;44.17;100535.38;5155171;27;20484;-62
2022/10/30 11:31:33;;;;;;;11.25;3.25;;;;;;;25.85;44.45;100546.97;5154716;27;20559;-61
2022/10/30 11:34:17;;;;;;;7.22;2.88;;;;;;;25.69;46.04;100540.56;5150915;22;20135;-59
2022/10/30 11:36:51;;;;;;;7.50;3.03;;;;;;;25.24;49.77;100538.44;5073462;28;20055;-59
2022/10/30 11:39:21;;;;;;;9.70;2.83;;;;;;;25.36;48.37;100542.59;5073309;28;20461;-61
2022/10/30 11:42:10;;;;;;;6.00;3.42;;;;;;;25.31;48.50;100548.03;5071129;28;20055;-61
2022/10/30 11:44:40;;;;;;;10.27;4.07;;;;;;;25.01;49.28;100540.44;5073009;28;20048;-60
2022/10/30 11:47:08;;;;;;;7.57;3.05;;;;;;;24.68;50.24;100541.53;5073284;28;20040;-59
2022/10/30 11:49:40;;;;;;;9.32;3.20;;;;;;;24.52;50.86;100542.50;5073096;28;20405;-59
2022/10/30 11:52:07;;;;;;;6.72;3.55;;;;;;;24.24;52.63;100538.09;5072706;28;20036;-61
2022/10/30 11:54:38;;;;;;;10.05;3.72;;;;;;;24.61;52.42;100533.59;5073084;28;20050;-61
2022/10/30 11:57:10;;;;;;;7.45;3.45;;;;;;;25.05;52.26;100541.59;5072958;28;20044;-60
2022/10/30 11:59:35;;;;;;;7.07;3.20;;;;;;;24.98;53.23;100540.16;5071765;28;20121;-59
2022/10/30 12:02:18;;;;;;;8.45;3.28;;;;;;;25.09;50.39;100530.97;5072535;28;20110;-59
2022/10/30 12:04:43;;;;;;;6.55;3.15;;;;;;;25.37;50.04;100541.53;5072661;28;20040;-60
2022/10/30 12:07:21;;;;;;;13.23;6.45;;;;;;;25.70;50.23;100539.50;5072634;28;20043;-59
2022/10/30 12:09:47;;;;;;;28.05;12.25;;;;;;;25.86;50.98;100533.03;5072243;28;20044;-59
2022/10/30 12:12:31;;;;;;;12.27;5.10;;;;;;;26.07;49.81;100528.47;5072219;28;20020;-61
2022/10/30 12:15:07;;;;;;;8.35;4.30;;;;;;;25.70;50.07;100525.88;5072574;28;20028;-61
2022/10/30 12:17:32;;;;;;;9.02;3.33;;;;;;;25.05;51.96;100527.97;5072540;28;20067;-61
2022/10/30 12:19:58;;;;;;;9.18;3.83;;;;;;;25.03;51.59;100523.81;5072364;28;20070;-59
2022/10/30 12:22:30;;;;;;;13.43;5.88;;;;;;;25.07;53.38;100531.25;5072280;28;20051;-61
2022/10/30 12:24:59;;;;;;;11.32;5.07;;;;;;;24.83;53.44;100522.59;5072255;28;20090;-60
2022/10/30 12:27:24;;;;;;;15.13;5.72;;;;;;;24.70;53.96;100522.22;5072339;28;20586;-58
2022/10/30 12:29:50;;;;;;;12.98;6.32;;;;;;;24.75;54.33;100527.69;5072002;28;20091;-61
2022/10/30 12:32:19;;;;;;;5.65;3.67;;;;;;;24.60;51.94;100521.06;5071719;28;20043;-59
2022/10/30 12:34:50;;;;;;;17.38;5.43;;;;;;;24.57;53.84;100512.56;5071998;28;20117;-60
2022/10/30 12:37:34;;;;;;;9.05;3.65;;;;;;;24.48;53.31;100511.41;5072229;28;20186;-61
2022/10/30 12:40:20;;;;;;;12.15;4.75;;;;;;;24.45;55.36;100503.75;5071963;28;20400;-61
2022/10/30 12:42:59;;;;;;;9.50;3.42;;;;;;;24.36;53.08;100506.94;5070862;28;20040;-60
2022/10/30 12:45:42;;;;;;;6.65;2.95;;;;;;;24.14;56.91;100492.56;5071981;28;20036;-60
2022/10/30 12:48:25;;;;;;;8.48;3.90;;;;;;;24.36;55.31;100496.06;5072068;28;20028;-61
2022/10/30 12:51:15;;;;;;;9.00;3.70;;;;;;;24.15;57.20;100504.25;5071714;28;20219;-60
2022/10/30 12:53:57;;;;;;;6.68;3.20;;;;;;;23.86;55.38;100495.50;5070724;28;20048;-60
2022/10/30 12:56:39;;;;;;;5.45;3.03;;;;;;;23.69;55.66;100495.59;5071933;28;20089;-59
2022/10/30 12:59:31;;;;;;;6.72;3.25;;;;;;;23.91;58.03;100496.38;5071881;28;20040;-59
2022/10/30 13:02:09;;;;;;;5.05;3.00;;;;;;;23.60;59.53;100492.44;5071629;28;20448;-60
2022/10/30 13:04:40;;;;;;;9.00;3.10;;;;;;;23.63;59.81;100480.28;5071820;28;20119;-60
2022/10/30 13:07:24;;;;;;;10.25;4.15;;;;;;;23.54;58.08;100478.00;5071675;28;20569;-61
2022/10/30 13:10:26;;;;;;;7.13;3.25;;;;;;;23.61;57.23;100476.97;5071776;28;20374;-63
2022/10/30 13:12:57;;;;;;;8.40;3.72;;;;;;;23.56;56.80;100478.56;5071744;28;20040;-61
2022/10/30 13:15:27;;;;;;;7.20;3.45;;;;;;;23.52;55.94;100471.97;5071684;28;20032;-61
2022/10/30 13:17:57;;;;;;;4.65;2.70;;;;;;;23.23;57.75;100474.06;5070676;28;20397;-61
2022/10/30 13:20:25;;;;;;;11.18;4.35;;;;;;;23.35;58.62;100484.81;5071399;28;20040;-62
2022/10/30 13:23:03;;;;;;;9.70;3.72;;;;;;;23.44;59.73;100471.59;5071690;28;20041;-63
2022/10/30 13:25:42;;;;;;;6.20;3.22;;;;;;;23.54;59.40;100482.63;5071645;28;20452;-61
2022/10/30 13:28:27;;;;;;;5.63;3.33;;;;;;;23.52;56.69;100471.97;5071577;28;20040;-62
2022/10/30 13:31:21;;;;;;;6.50;3.22;;;;;;;23.33;58.28;100467.91;5071315;28;20404;-63
2022/10/30 13:34:01;;;;;;;8.80;3.72;;;;;;;23.28;56.92;100476.03;5041843;28;20051;-63
2022/10/30 13:36:43;;;;;;;6.72;3.35;;;;;;;23.21;60.00;100473.50;5071585;28;20075;-63
2022/10/30 13:39:29;;;;;;;7.78;3.58;;;;;;;23.21;61.04;100478.94;5071634;28;20040;-61
2022/10/30 13:42:19;;;;;;;7.38;3.83;;;;;;;23.19;61.51;100470.19;5071174;28;20028;-61
2022/10/30 13:45:10;;;;;;;6.70;3.60;;;;;;;23.13;63.13;100470.38;5075421;28;20385;-59
2022/10/30 13:48:06;;;;;;;9.02;3.25;;;;;;;23.10;60.85;100471.69;5075490;28;20032;-60
2022/10/30 13:50:41;;;;;;;8.63;3.33;;;;;;;23.06;59.93;100464.28;5073841;28;20032;-59
2022/10/30 13:53:15;;;;;;;7.88;3.38;;;;;;;22.92;65.61;100464.66;5075321;28;20477;-58
2022/10/30 13:55:43;;;;;;;4.55;3.25;;;;;;;22.91;59.88;100463.00;5075398;28;20024;-60
2022/10/30 13:58:39;;;;;;;7.18;3.40;;;;;;;22.84;62.48;100470.47;5073912;28;20404;-61
2022/10/30 14:01:14;;;;;;;6.90;3.20;;;;;;;22.84;60.99;100473.19;5074967;28;20041;-62
2022/10/30 14:04:10;;;;;;;7.63;4.18;;;;;;;22.73;64.44;100472.19;5075090;28;20087;-61
2022/10/30 14:06:58;;;;;;;8.77;5.32;;;;;;;22.81;64.72;100473.66;5071097;28;20055;-61
2022/10/30 14:09:30;;;;;;;7.70;3.25;;;;;;;22.82;64.65;100475.34;5075055;28;20036;-62
2022/10/30 14:12:19;;;;;;;6.82;3.70;;;;;;;22.79;62.95;100470.38;5074547;28;20040;-62
2022/10/30 14:14:46;;;;;;;5.88;3.28;;;;;;;22.81;63.12;100476.38;5074824;28;20055;-62
2022/10/30 14:17:16;;;;;;;8.52;3.30;;;;;;;22.75;61.10;100480.91;5074810;28;20496;-62
2022/10/30 14:20:03;;;;;;;7.80;3.10;;;;;;;22.70;62.19;100480.03;5074834;28;20063;-61
2022/10/30 14:22:29;;;;;;;6.80;3.38;;;;;;;22.68;62.72;100482.16;5074486;28;20032;-62
2022/10/30 14:24:55;;;;;;;10.55;3.22;;;;;;;22.61;63.24;100482.31;5074664;28;20032;-63
2022/10/30 14:27:26;;;;;;;7.70;3.40;;;;;;;22.58;62.19;100479.28;5074747;28;20404;-61
2022/10/30 14:29:52;;;;;;;6.93;3.38;;;;;;;22.58;62.88;100477.41;5073413;28;20147;-61
2022/10/30 14:32:17;;;;;;;5.95;3.58;;;;;;;22.56;62.17;100476.84;5074276;28;20033;-61
2022/10/30 14:34:48;;;;;;;8.40;3.03;;;;;;;22.50;64.61;100482.44;5073062;28;20147;-62
2022/10/30 14:37:15;;;;;;;8.55;3.35;;;;;;;22.51;63.97;100484.06;5074424;28;20037;-62
2022/10/30 14:39:43;;;;;;;8.23;3.45;;;;;;;22.47;65.02;100470.97;5074473;28;20075;-62
2022/10/30 14:42:31;;;;;;;5.90;3.20;;;;;;;22.38;63.47;100475.16;5074187;28;20158;-61
2022/10/30 14:45:08;;;;;;;8.52;3.30;;;;;;;22.32;65.75;100476.16;5074274;28;20044;-62
2022/10/30 14:47:58;;;;;;;8.25;3.60;;;;;;;22.20;66.30;100476.22;5074448;28;20043;-62
2022/10/30 14:50:41;;;;;;;7.45;3.22;;;;;;;22.27;66.74;100478.78;5074001;28;20037;-60
2022/10/30 14:53:20;;;;;;;7.47;3.50;;;;;;;22.20;67.28;100480.81;5073678;28;20063;-62
2022/10/30 14:56:01;;;;;;;7.18;3.95;;;;;;;22.16;68.67;100480.47;5074456;28;20036;-63
2022/10/30 14:58:30;;;;;;;6.53;3.00;;;;;;;22.05;69.55;100486.75;5074155;28;20039;-61
2022/10/30 15:01:26;;;;;;;10.05;3.42;;;;;;;21.98;70.22;100471.72;5073769;28;20436;-62
2022/10/30 15:04:18;;;;;;;7.40;3.58;;;;;;;21.98;70.54;100475.25;5073926;28;20404;-62
2022/10/30 15:06:49;;;;;;;13.00;4.68;;;;;;;21.93;71.66;100473.25;5074000;28;20047;-63
2022/10/30 15:09:36;;;;;;;6.97;3.90;;;;;;;21.88;70.79;100469.63;5073879;28;20040;-62
2022/10/30 15:12:36;;;;;;;5.63;3.50;;;;;;;21.71;73.63;100482.28;5073456;28;20174;-62
2022/10/30 15:15:05;;;;;;;6.82;3.83;;;;;;;21.63;74.28;100467.22;5073962;28;20421;-62
2022/10/30 15:17:38;;;;;;;6.15;3.63;;;;;;;21.56;74.96;100471.97;5073821;28;20040;-61
2022/10/30 15:20:17;;;;;;;10.05;3.47;;;;;;;21.54;74.95;100477.63;5073596;28;20032;-62
2022/10/30 15:22:43;;;;;;;8.20;3.67;;;;;;;21.39;77.89;100483.56;5073628;28;20096;-62
2022/10/30 15:25:19;;;;;;;18.45;7.50;;;;;;;21.29;78.41;100483.31;5073578;28;20041;-62
2022/10/30 15:27:47;;;;;;;10.10;3.67;;;;;;;21.11;78.96;100486.13;5073774;28;20055;-63
2022/10/30 15:30:17;;;;;;;10.25;4.25;;;;;;;20.92;81.95;100481.91;5073164;28;20047;-63
2022/10/30 15:32:42;;;;;;;13.52;5.43;;;;;;;20.78;83.04;100482.13;5073346;28;20047;-62
2022/10/30 15:35:18;;;;;;;29.05;12.15;;;;;;;20.62;84.81;100480.13;5073260;28;20029;-62
2022/10/30 15:38:08;;;;;;;15.68;7.72;;;;;;;20.47;86.49;100479.75;5073390;28;20033;-63
2022/10/30 15:40:35;;;;;;;18.83;7.55;;;;;;;20.33;87.39;100485.31;5072915;28;20040;-63
2022/10/30 15:43:04;;;;;;;20.25;7.07;;;;;;;20.21;88.65;100491.75;5073318;28;20040;-62
2022/10/30 15:45:34;;;;;;;14.13;5.43;;;;;;;20.09;88.16;100483.63;5073082;28;20071;-62
2022/10/30 15:48:05;;;;;;;12.85;5.70;;;;;;;20.04;88.93;100475.38;5073080;28;20072;-61
2022/10/30 15:50:33;;;;;;;14.88;5.70;;;;;;;19.89;90.08;100483.09;5072443;28;20548;-60
2022/10/30 15:52:59;;;;;;;11.45;5.43;;;;;;;19.81;91.44;100488.78;5072715;28;20036;-61
2022/10/30 15:55:30;;;;;;;13.57;4.68;;;;;;;19.63;93.12;100484.25;5072795;28;20520;-61
2022/10/30 15:58:00;;;;;;;16.80;7.80;;;;;;;19.35;95.36;100482.03;5072846;28;20037;-60
2022/10/30 16:00:36;;;;;;;21.25;7.30;;;;;;;19.21;96.81;100492.16;5072560;28;20063;-60
2022/10/30 16:03:05;;;;;;;23.57;8.13;;;;;;;19.17;97.85;100482.84;5072838;28;20123;-61
2022/10/30 16:05:31;;;;;;;24.30;10.38;;;;;;;19.00;97.81;100484.50;5071833;28;20443;-60
2022/10/30 16:08:01;;;;;;;50.03;18.45;;;;;;;19.01;97.24;100486.16;5072784;28;20119;-61
2022/10/30 16:10:33;;;;;;;33.38;13.88;;;;;;;18.94;97.29;100491.59;5072322;28;20047;-61
2022/10/30 16:12:58;;;;;;;21.08;9.23;;;;;;;18.74;97.82;100489.09;5072707;28;20043;-61
2022/10/30 16:15:30;;;;;;;14.52;5.43;;;;;;;18.78;98.42;100487.59;5072523;28;20032;-62
2022/10/30 16:18:06;;;;;;;15.95;6.55;;;;;;;18.74;98.10;100486.38;5072587;28;20048;-62
2022/10/30 16:20:34;;;;;;;13.35;5.28;;;;;;;18.79;98.16;100488.44;5072176;28;20032;-61
2022/10/30 16:23:01;;;;;;;16.13;6.22;;;;;;;18.72;98.22;100490.38;5072424;28;20033;-61
2022/10/30 16:25:27;;;;;;;13.77;6.30;;;;;;;18.66;98.91;100490.19;5072255;28;20039;-61
2022/10/30 16:27:52;;;;;;;12.77;5.25;;;;;;;18.45;100.00;100487.81;5072299;28;20078;-61
2022/10/30 16:30:18;;;;;;;11.38;4.53;;;;;;;18.50;100.00;100489.88;5071981;28;20045;-62
2022/10/30 16:32:51;;;;;;;8.85;4.22;;;;;;;18.41;100.00;100487.44;5072204;28;20051;-59
2022/10/30 16:35:20;;;;;;;9.57;3.92;;;;;;;18.34;100.00;100485.84;5072009;28;20032;-61
2022/10/30 16:37:46;;;;;;;7.80;4.30;;;;;;;18.32;100.00;100493.31;5071853;28;20040;-66
2022/10/30 16:40:15;;;;;;;11.55;3.78;;;;;;;18.02;100.00;100487.72;5071589;28;20044;-66
2022/10/30 16:42:46;;;;;;;6.88;4.43;;;;;;;17.75;100.00;100487.84;5071992;28;20591;-66
2022/10/30 16:45:11;;;;;;;16.77;9.45;;;;;;;17.83;100.00;100482.19;5071742;28;20105;-65
2022/10/30 16:47:46;;;;;;;18.55;9.48;;;;;;;17.60;100.00;100481.84;5071749;28;20036;-66
2022/10/30 16:50:16;;;;;;;23.63;9.30;;;;;;;17.48;100.00;100484.41;5071399;28;20540;-66
2022/10/30 16:52:42;;;;;;;19.60;10.23;;;;;;;17.41;100.00;100480.91;5071915;28;20040;-65
2022/10/30 16:55:17;;;;;;;17.52;9.18;;;;;;;17.27;100.00;100480.09;5071855;28;20036;-66
2022/10/30 16:57:45;;;;;;;19.50;11.80;;;;;;;17.06;100.00;100483.88;5071801;28;20039;-66
2022/10/30 17:00:22;;;;;;;14.88;8.82;;;;;;;16.92;100.00;100482.25;5071530;28;20457;-66
2022/10/30 17:02:49;;;;;;;15.32;7.90;;;;;;;16.90;100.00;100481.63;5071714;28;20032;-66
2022/10/30 17:05:22;;;;;;;7.93;5.38;;;;;;;16.83;100.00;100493.44;5071498;28;20047;-66
2022/10/30 17:07:59;;;;;;;10.98;4.90;;;;;;;16.89;100.00;100487.19;5071699;28;20123;-66
2022/10/30 17:10:32;;;;;;;12.30;4.65;;;;;;;16.95;100.00;100489.06;5071304;28;20039;-66
2022/10/30 17:13:33;;;;;;;10.30;4.90;;;;;;;16.74;100.00;100490.13;5071586;28;20037;-66
2022/10/30 17:16:18;;;;;;;18.33;5.32;;;;;;;16.66;100.00;100490.31;5071403;28;20528;-66
2022/10/30 17:18:44;;;;;;;9.93;4.95;;;;;;;16.49;100.00;100497.94;5071926;28;20483;-65
2022/10/30 17:21:12;;;;;;;9.75;4.68;;;;;;;16.30;100.00;100496.91;5071239;28;20067;-66